createdAt,value
2023-01-09T00:00:56.539Z,9.18
2023-01-09T00:03:24.321Z,9.16
2023-01-09T00:05:53.020Z,9.13
2023-01-09T00:08:20.953Z,9.12
2023-01-09T00:10:50.563Z,9.10
2023-01-09T00:13:19.068Z,9.06
2023-01-09T00:15:48.956Z,9.04
2023-01-09T00:18:16.723Z,9.00
2023-01-09T00:20:44.472Z,8.98
2023-01-09T00:23:12.375Z,8.96
2023-01-09T00:25:42.478Z,8.93
2023-01-09T00:28:10.563Z,8.91
2023-01-09T00:30:38.922Z,8.88
2023-01-09T00:33:08.203Z,8.89
2023-01-09T00:35:36.312Z,8.86
2023-01-09T00:38:04.826Z,8.84
2023-01-09T00:40:32.664Z,8.83
2023-01-09T00:43:01.430Z,8.82
2023-01-09T00:45:30.674Z,8.82
2023-01-09T00:48:03.400Z,8.81
2023-01-09T00:50:34.417Z,8.77
2023-01-09T00:53:07.460Z,8.76
2023-01-09T00:55:38.234Z,8.75
2023-01-09T00:58:06.429Z,8.73
2023-01-09T01:00:34.398Z,8.73
2023-01-09T01:03:02.402Z,8.71
2023-01-09T01:05:47.486Z,8.70
2023-01-09T01:08:19.571Z,8.69
2023-01-09T01:10:49.183Z,8.66
2023-01-09T01:13:17.588Z,8.67
2023-01-09T01:15:46.859Z,8.66
2023-01-09T01:18:15.691Z,8.66
2023-01-09T01:20:44.668Z,8.65
2023-01-09T01:23:12.762Z,8.64
2023-01-09T01:25:43.571Z,8.65
2023-01-09T01:28:11.518Z,8.63
2023-01-09T01:30:40.219Z,8.63
2023-01-09T01:33:08.611Z,8.62
2023-01-09T01:35:36.502Z,8.63
2023-01-09T01:38:05.094Z,8.64
2023-01-09T01:40:34.186Z,8.63
2023-01-09T01:43:03.347Z,8.64
2023-01-09T01:45:33.249Z,8.65
2023-01-09T01:48:05.016Z,8.65
2023-01-09T01:50:36.403Z,8.65
2023-01-09T01:53:10.498Z,8.64
2023-01-09T01:55:43.534Z,8.65
2023-01-09T01:58:16.767Z,8.65
2023-01-09T02:00:47.793Z,8.65
2023-01-09T02:03:18.796Z,8.66
2023-01-09T02:05:46.688Z,8.64
2023-01-09T02:08:14.707Z,8.62
2023-01-09T02:10:43.315Z,8.65
2023-01-09T02:13:14.355Z,8.66
2023-01-09T02:15:57.062Z,8.68
2023-01-09T02:18:48.569Z,8.64
2023-01-09T02:21:25.670Z,8.64
2023-01-09T02:24:29.266Z,8.61
2023-01-09T02:27:31.294Z,8.61
2023-01-09T02:30:26.784Z,8.61
2023-01-09T02:33:19.034Z,8.63
2023-01-09T02:36:19.329Z,8.58
2023-01-09T02:38:57.382Z,8.62
2023-01-09T02:41:32.010Z,8.60
2023-01-09T02:44:14.114Z,8.61
2023-01-09T02:46:43.931Z,8.59
2023-01-09T02:49:12.765Z,8.58
2023-01-09T02:51:52.247Z,8.61
2023-01-09T02:54:29.563Z,8.59
2023-01-09T02:57:12.773Z,8.58
2023-01-09T02:59:49.709Z,8.32
2023-01-09T03:02:35.214Z,8.53
2023-01-09T03:05:12.279Z,8.55
2023-01-09T03:07:46.746Z,8.53
2023-01-09T03:10:22.002Z,8.54
2023-01-09T03:12:54.323Z,8.52
2023-01-09T03:15:26.371Z,8.48
2023-01-09T03:17:56.293Z,8.49
2023-01-09T03:20:27.754Z,8.49
2023-01-09T03:22:57.457Z,8.48
2023-01-09T03:25:27.830Z,8.48
2023-01-09T03:27:58.727Z,8.46
2023-01-09T03:30:28.739Z,8.46
2023-01-09T03:32:58.551Z,8.43
2023-01-09T03:35:26.782Z,8.42
2023-01-09T03:37:54.770Z,8.41
2023-01-09T03:40:23.317Z,8.39
2023-01-09T03:42:51.074Z,8.39
2023-01-09T03:45:18.837Z,8.37
2023-01-09T03:47:46.813Z,8.36
2023-01-09T03:50:16.431Z,8.36
2023-01-09T03:52:44.310Z,8.34
2023-01-09T03:55:13.725Z,8.32
2023-01-09T03:57:42.597Z,8.31
2023-01-09T04:00:11.939Z,8.31
2023-01-09T04:02:43.128Z,8.26
2023-01-09T04:05:11.308Z,8.29
2023-01-09T04:07:40.944Z,8.29
2023-01-09T04:10:09.981Z,8.28
2023-01-09T04:12:37.784Z,8.27
2023-01-09T04:15:06.516Z,8.26
2023-01-09T04:17:34.299Z,8.25
2023-01-09T04:20:02.038Z,8.25
2023-01-09T04:22:31.287Z,8.25
2023-01-09T04:25:00.497Z,8.24
2023-01-09T04:27:28.334Z,8.23
2023-01-09T04:29:56.119Z,8.23
2023-01-09T04:32:23.912Z,8.23
2023-01-09T04:34:51.706Z,8.22
2023-01-09T04:37:19.537Z,8.22
2023-01-09T04:39:47.649Z,8.19
2023-01-09T04:42:17.083Z,8.19
2023-01-09T04:44:44.913Z,8.17
2023-01-09T04:47:13.612Z,8.16
2023-01-09T04:49:41.496Z,8.15
2023-01-09T04:52:09.304Z,8.14
2023-01-09T04:54:39.624Z,8.13
2023-01-09T04:57:07.576Z,8.11
2023-01-09T04:59:36.907Z,8.12
2023-01-09T05:02:04.779Z,8.09
2023-01-09T05:04:32.843Z,8.08
2023-01-09T05:07:00.787Z,8.09
2023-01-09T05:09:28.772Z,8.06
2023-01-09T05:11:56.537Z,8.06
2023-01-09T05:14:24.285Z,8.05
2023-01-09T05:16:53.678Z,8.06
2023-01-09T05:19:21.796Z,8.05
2023-01-09T05:21:49.655Z,8.03
2023-01-09T05:24:17.424Z,8.03
2023-01-09T05:26:45.294Z,8.01
2023-01-09T05:29:13.003Z,8.02
2023-01-09T05:31:40.753Z,8.01
2023-01-09T05:34:09.949Z,8.03
2023-01-09T05:36:37.767Z,8.01
2023-01-09T05:39:05.607Z,8.02
2023-01-09T05:41:33.359Z,8.00
2023-01-09T05:44:01.102Z,8.01
2023-01-09T05:46:28.943Z,8.01
2023-01-09T05:48:56.730Z,8.02
2023-01-09T05:51:25.913Z,8.03
2023-01-09T05:53:53.793Z,8.01
2023-01-09T05:56:21.602Z,8.01
2023-01-09T05:58:49.388Z,8.03
2023-01-09T06:01:17.415Z,8.03
2023-01-09T06:03:45.238Z,8.05
2023-01-09T06:06:13.434Z,8.05
2023-01-09T06:08:42.609Z,8.05
2023-01-09T06:11:10.371Z,8.06
2023-01-09T06:13:38.187Z,8.08
2023-01-09T06:16:07.098Z,8.08
2023-01-09T06:18:35.108Z,8.08
2023-01-09T06:21:02.950Z,8.10
2023-01-09T06:23:30.810Z,8.10
2023-01-09T06:26:00.031Z,8.12
2023-01-09T06:28:27.955Z,8.10
2023-01-09T06:30:55.871Z,8.11
2023-01-09T06:33:23.813Z,8.11
2023-01-09T06:35:51.555Z,8.11
2023-01-09T06:38:19.500Z,8.13
2023-01-09T06:40:48.634Z,8.13
2023-01-09T06:43:17.737Z,8.15
2023-01-09T06:45:45.654Z,8.13
2023-01-09T06:48:13.784Z,8.13
2023-01-09T06:50:42.016Z,8.13
2023-01-09T06:53:10.685Z,8.13
2023-01-09T06:55:38.468Z,8.12
2023-01-09T06:58:06.295Z,8.12
2023-01-09T07:00:35.913Z,8.13
2023-01-09T07:03:04.003Z,8.11
2023-01-09T07:05:32.163Z,8.11
2023-01-09T07:08:00.106Z,8.10
2023-01-09T07:10:27.947Z,8.10
2023-01-09T07:12:55.756Z,8.10
2023-01-09T07:15:23.620Z,8.11
2023-01-09T07:17:54.230Z,8.10
2023-01-09T07:20:22.086Z,8.10
2023-01-09T07:22:49.870Z,8.10
2023-01-09T07:25:18.104Z,8.10
2023-01-09T07:27:45.892Z,8.11
2023-01-09T07:30:14.927Z,8.11
2023-01-09T07:32:42.843Z,8.10
2023-01-09T07:35:12.408Z,8.12
2023-01-09T07:37:40.246Z,8.10
2023-01-09T07:40:09.551Z,8.12
2023-01-09T07:42:37.425Z,8.11
2023-01-09T07:45:06.214Z,8.12
2023-01-09T07:47:34.032Z,8.10
2023-01-09T07:50:01.804Z,8.12
2023-01-09T07:52:30.990Z,8.13
2023-01-09T07:54:58.875Z,8.12
2023-01-09T07:57:26.744Z,8.13
2023-01-09T07:59:54.595Z,8.12
2023-01-09T08:02:22.520Z,8.13
2023-01-09T08:04:50.355Z,8.14
2023-01-09T08:07:18.152Z,8.13
2023-01-09T08:09:47.336Z,8.13
2023-01-09T08:12:15.882Z,8.12
2023-01-09T08:14:44.117Z,8.13
2023-01-09T08:17:11.867Z,8.13
2023-01-09T08:19:40.144Z,8.13
2023-01-09T08:22:08.004Z,8.12
2023-01-09T08:24:36.651Z,8.13
2023-01-09T08:27:05.845Z,8.14
2023-01-09T08:29:33.722Z,8.14
2023-01-09T08:32:01.468Z,8.12
2023-01-09T08:34:29.556Z,8.14
2023-01-09T08:36:58.787Z,8.13
2023-01-09T08:39:26.592Z,8.14
2023-01-09T08:42:12.263Z,8.16
2023-01-09T08:44:59.112Z,8.14
2023-01-09T08:47:28.723Z,8.16
2023-01-09T08:49:56.440Z,8.17
2023-01-09T08:52:24.285Z,8.18
2023-01-09T08:54:52.096Z,8.19
2023-01-09T08:57:20.142Z,8.21
2023-01-09T08:59:49.317Z,8.23
2023-01-09T09:02:17.208Z,8.23
2023-01-09T09:04:46.194Z,8.25
2023-01-09T09:07:14.014Z,8.26
2023-01-09T09:09:41.764Z,8.26
2023-01-09T09:12:09.536Z,8.27
2023-01-09T09:14:55.178Z,8.30
2023-01-09T09:17:24.416Z,8.30
2023-01-09T09:19:52.198Z,8.32
2023-01-09T09:22:20.053Z,8.33
2023-01-09T09:24:47.852Z,8.34
2023-01-09T09:27:15.747Z,8.33
2023-01-09T09:29:43.574Z,8.38
2023-01-09T09:32:11.420Z,8.38
2023-01-09T09:34:40.606Z,8.41
2023-01-09T09:37:08.736Z,8.41
2023-01-09T09:39:36.571Z,8.43
2023-01-09T09:42:36.538Z,8.45
2023-01-09T09:45:17.101Z,8.44
2023-01-09T09:47:53.714Z,8.44
2023-01-09T09:50:44.513Z,8.46
2023-01-09T09:53:18.028Z,8.45
2023-01-09T09:55:49.359Z,8.47
2023-01-09T09:58:22.712Z,8.48
2023-01-09T10:00:51.983Z,8.49
2023-01-09T10:03:34.166Z,8.52
2023-01-09T10:06:08.643Z,8.51
2023-01-09T10:08:42.167Z,8.54
2023-01-09T10:11:16.802Z,8.52
2023-01-09T10:14:04.203Z,8.53
2023-01-09T10:16:48.102Z,8.56
2023-01-09T10:19:25.904Z,8.54
2023-01-09T10:22:02.027Z,8.58
2023-01-09T10:24:48.881Z,8.59
2023-01-09T10:27:24.716Z,8.57
2023-01-09T10:30:04.227Z,8.59
2023-01-09T10:32:46.724Z,8.60
2023-01-09T10:35:42.885Z,8.59
2023-01-09T10:38:21.425Z,8.59
2023-01-09T10:40:53.925Z,8.60
2023-01-09T10:43:30.594Z,8.60
2023-01-09T10:46:04.619Z,8.61
2023-01-09T10:48:35.653Z,8.61
2023-01-09T10:51:07.021Z,8.61
2023-01-09T10:53:40.473Z,8.62
2023-01-09T10:56:18.946Z,8.62
2023-01-09T10:58:46.811Z,8.61
2023-01-09T11:01:15.473Z,8.60
2023-01-09T11:03:43.347Z,8.61
2023-01-09T11:06:22.252Z,8.65
2023-01-09T11:08:54.794Z,8.63
2023-01-09T11:11:35.013Z,8.61
2023-01-09T11:14:08.442Z,8.61
2023-01-09T11:16:36.531Z,8.60
2023-01-09T11:19:04.393Z,8.61
2023-01-09T11:21:36.071Z,8.61
2023-01-09T11:24:28.838Z,8.62
2023-01-09T11:27:23.548Z,8.58
2023-01-09T11:30:08.695Z,8.60
2023-01-09T11:32:37.454Z,8.58
2023-01-09T11:35:07.795Z,8.60
2023-01-09T11:37:35.963Z,8.61
2023-01-09T11:40:05.966Z,8.63
2023-01-09T11:42:51.982Z,8.62
2023-01-09T11:45:21.792Z,8.63
2023-01-09T11:47:49.697Z,8.64
2023-01-09T11:50:20.107Z,8.67
2023-01-09T11:52:48.416Z,8.67
2023-01-09T11:55:20.458Z,8.69
2023-01-09T11:57:50.470Z,8.66
2023-01-09T12:00:28.215Z,8.71
2023-01-09T12:03:12.504Z,8.73
2023-01-09T12:05:53.325Z,8.72
2023-01-09T12:08:41.035Z,8.73
2023-01-09T12:11:24.247Z,8.73
2023-01-09T12:14:25.201Z,8.70
2023-01-09T12:17:22.939Z,8.71
2023-01-09T12:20:03.584Z,8.70
2023-01-09T12:22:40.010Z,8.70
2023-01-09T12:25:19.322Z,8.70
2023-01-09T12:28:00.069Z,8.69
2023-01-09T12:30:39.463Z,8.68
2023-01-09T12:33:23.488Z,8.69
2023-01-09T12:36:08.666Z,8.66
2023-01-09T12:38:44.866Z,8.66
2023-01-09T12:41:42.653Z,8.66
2023-01-09T12:44:35.752Z,8.65
2023-01-09T12:47:18.109Z,8.64
2023-01-09T12:49:54.983Z,8.63
2023-01-09T12:52:27.214Z,8.63
2023-01-09T12:55:02.213Z,8.61
2023-01-09T12:57:36.671Z,8.63
2023-01-09T13:00:16.080Z,8.65
2023-01-09T13:02:51.650Z,8.65
2023-01-09T13:05:26.275Z,8.65
2023-01-09T13:08:01.569Z,8.66
2023-01-09T13:10:33.230Z,8.66
2023-01-09T13:13:09.200Z,8.66
2023-01-09T13:15:42.407Z,8.66
2023-01-09T13:18:16.706Z,8.65
2023-01-09T13:20:47.557Z,8.65
2023-01-09T13:23:22.909Z,8.65
2023-01-09T13:25:53.212Z,8.64
2023-01-09T13:28:26.097Z,8.65
2023-01-09T13:31:29.889Z,8.64
2023-01-09T13:34:02.915Z,8.63
2023-01-09T13:36:37.730Z,8.64
2023-01-09T13:39:06.866Z,8.63
2023-01-09T13:42:04.767Z,8.63
2023-01-09T13:44:34.493Z,8.61
2023-01-09T13:47:03.609Z,8.63
2023-01-09T13:49:48.926Z,8.65
2023-01-09T13:52:36.534Z,8.62
2023-01-09T13:55:35.967Z,8.60
2023-01-09T13:58:24.071Z,8.60
2023-01-09T14:00:57.538Z,8.63
2023-01-09T14:03:29.389Z,8.62
2023-01-09T14:06:28.074Z,8.58
2023-01-09T14:09:20.600Z,8.59
2023-01-09T14:11:49.584Z,8.58
2023-01-09T14:14:27.212Z,8.63
2023-01-09T14:16:55.196Z,8.61
2023-01-09T14:19:36.799Z,8.64
2023-01-09T14:22:07.574Z,8.62
2023-01-09T14:24:46.359Z,8.64
2023-01-09T14:28:04.357Z,8.61
2023-01-09T14:30:34.778Z,8.58
2023-01-09T14:33:04.766Z,8.59
2023-01-09T14:35:41.184Z,8.61
2023-01-09T14:38:26.494Z,8.60
2023-01-09T14:40:57.122Z,8.58
2023-01-09T14:43:34.344Z,8.58
2023-01-09T14:46:09.826Z,8.58
2023-01-09T14:48:43.623Z,8.58
2023-01-09T14:51:17.411Z,8.58
2023-01-09T14:53:47.325Z,8.57
2023-01-09T14:56:28.580Z,8.57
2023-01-09T14:59:06.770Z,8.57
2023-01-09T15:01:36.814Z,8.56
2023-01-09T15:04:11.675Z,8.56
2023-01-09T15:06:44.368Z,8.55
2023-01-09T15:09:24.516Z,8.54
2023-01-09T15:11:54.296Z,8.52
2023-01-09T15:14:30.979Z,8.54
2023-01-09T15:16:59.945Z,8.53
2023-01-09T15:19:28.494Z,8.53
2023-01-09T15:22:02.102Z,8.54
2023-01-09T15:24:34.246Z,8.53
2023-01-09T15:27:04.660Z,8.49
2023-01-09T15:29:32.584Z,8.49
2023-01-09T15:32:06.165Z,8.50
2023-01-09T15:34:34.534Z,8.48
2023-01-09T15:37:03.089Z,8.46
2023-01-09T15:39:37.101Z,8.48
2023-01-09T15:42:22.838Z,8.45
2023-01-09T15:44:53.840Z,8.44
2023-01-09T15:47:27.692Z,8.43
2023-01-09T15:49:57.240Z,8.43
2023-01-09T15:52:25.525Z,8.42
2023-01-09T15:54:54.797Z,8.42
2023-01-09T15:57:30.821Z,8.44
2023-01-09T16:00:33.160Z,8.42
2023-01-09T16:03:07.502Z,8.42
2023-01-09T16:05:39.883Z,8.40
2023-01-09T16:08:20.319Z,8.43
2023-01-09T16:10:53.582Z,8.42
2023-01-09T16:13:23.485Z,8.41
2023-01-09T16:15:52.642Z,8.41
2023-01-09T16:18:23.634Z,8.40
2023-01-09T16:21:02.991Z,8.40
2023-01-09T16:23:33.173Z,8.37
2023-01-09T16:26:13.745Z,8.37
2023-01-09T16:28:42.893Z,8.34
2023-01-09T16:31:21.333Z,8.37
2023-01-09T16:33:53.328Z,8.32
2023-01-09T16:36:22.126Z,8.29
2023-01-09T16:38:49.920Z,8.29
2023-01-09T16:41:40.183Z,8.28
2023-01-09T16:44:10.867Z,8.21
2023-01-09T16:46:41.581Z,8.21
2023-01-09T16:49:19.504Z,8.19
2023-01-09T16:51:47.531Z,8.14
2023-01-09T16:54:15.685Z,8.14
2023-01-09T16:56:48.431Z,8.13
2023-01-09T16:59:20.982Z,8.10
2023-01-09T17:01:49.415Z,8.08
2023-01-09T17:04:20.032Z,8.11
2023-01-09T17:06:49.858Z,8.10
2023-01-09T17:09:19.649Z,8.11
2023-01-09T17:11:48.852Z,8.11
2023-01-09T17:14:16.697Z,8.09
2023-01-09T17:16:45.994Z,8.09
2023-01-09T17:19:19.465Z,8.10
2023-01-09T17:21:48.130Z,8.07
2023-01-09T17:24:34.583Z,8.07
2023-01-09T17:27:21.658Z,8.06
2023-01-09T17:29:49.897Z,8.03
2023-01-09T17:32:19.140Z,8.02
2023-01-09T17:34:47.077Z,8.02
2023-01-09T17:37:16.542Z,8.01
2023-01-09T17:39:44.741Z,8.00
2023-01-09T17:42:14.376Z,8.01
2023-01-09T17:44:43.088Z,7.98
2023-01-09T17:47:15.793Z,7.98
2023-01-09T17:49:43.998Z,7.94
2023-01-09T17:52:11.756Z,7.94
2023-01-09T17:54:39.663Z,7.93
2023-01-09T17:57:08.605Z,7.94
2023-01-09T17:59:37.877Z,7.92
2023-01-09T18:02:05.807Z,7.91
2023-01-09T18:04:33.640Z,7.90
2023-01-09T18:07:01.421Z,7.89
2023-01-09T18:09:29.298Z,7.88
2023-01-09T18:11:57.101Z,7.88
2023-01-09T18:14:24.976Z,7.87
2023-01-09T18:16:54.138Z,7.89
2023-01-09T18:19:24.805Z,7.85
2023-01-09T18:21:52.582Z,7.87
2023-01-09T18:24:20.342Z,7.87
2023-01-09T18:26:48.154Z,7.87
2023-01-09T18:29:15.943Z,7.87
2023-01-09T18:31:43.799Z,7.88
2023-01-09T18:34:13.005Z,7.89
2023-01-09T18:36:40.846Z,7.87
2023-01-09T18:39:09.137Z,7.88
2023-01-09T18:41:36.960Z,7.88
2023-01-09T18:44:04.900Z,7.88
2023-01-09T18:46:33.010Z,7.88
2023-01-09T18:49:02.477Z,7.89
2023-01-09T18:51:33.314Z,7.89
2023-01-09T18:54:01.224Z,7.87
2023-01-09T18:56:29.058Z,7.87
2023-01-09T18:58:58.425Z,7.88
2023-01-09T19:01:27.327Z,7.87
2023-01-09T19:03:56.538Z,7.87
2023-01-09T19:06:24.880Z,7.85
2023-01-09T19:08:54.962Z,7.85
2023-01-09T19:11:22.968Z,7.84
2023-01-09T19:13:51.533Z,7.83
2023-01-09T19:16:19.872Z,7.82
2023-01-09T19:18:47.818Z,7.83
2023-01-09T19:21:17.131Z,7.82
2023-01-09T19:23:46.049Z,7.81
2023-01-09T19:26:20.233Z,7.83
2023-01-09T19:28:50.249Z,7.81
2023-01-09T19:31:18.916Z,7.83
2023-01-09T19:33:46.847Z,7.82
2023-01-09T19:36:15.052Z,7.81
2023-01-09T19:38:43.648Z,7.81
2023-01-09T19:41:14.335Z,7.80
2023-01-09T19:43:43.627Z,7.79
2023-01-09T19:46:13.772Z,7.79
2023-01-09T19:48:42.623Z,7.78
2023-01-09T19:51:11.273Z,7.77
2023-01-09T19:53:39.764Z,7.75
2023-01-09T19:56:13.279Z,7.75
2023-01-09T19:58:41.414Z,7.48
2023-01-09T20:01:13.591Z,7.70
2023-01-09T20:03:42.999Z,7.69
2023-01-09T20:06:14.374Z,7.71
2023-01-09T20:08:42.615Z,7.69
2023-01-09T20:11:10.460Z,7.69
2023-01-09T20:13:39.390Z,7.69
2023-01-09T20:16:08.650Z,7.69
2023-01-09T20:18:37.926Z,7.70
2023-01-09T20:21:06.731Z,7.68
2023-01-09T20:23:36.042Z,7.69
2023-01-09T20:26:03.857Z,7.68
2023-01-09T20:28:31.849Z,7.68
2023-01-09T20:30:59.855Z,7.68
2023-01-09T20:33:27.721Z,7.67
2023-01-09T20:36:01.493Z,7.69
2023-01-09T20:38:29.386Z,7.67
2023-01-09T20:40:58.270Z,7.67
2023-01-09T20:43:27.799Z,7.66
2023-01-09T20:45:55.773Z,7.65
2023-01-09T20:48:23.708Z,7.66
2023-01-09T20:50:51.496Z,7.65
2023-01-09T20:53:20.679Z,7.65
2023-01-09T20:55:48.444Z,7.64
2023-01-09T20:58:16.480Z,7.62
2023-01-09T21:00:44.389Z,7.62
2023-01-09T21:03:15.427Z,7.61
2023-01-09T21:05:43.402Z,7.61
2023-01-09T21:08:11.190Z,7.60
2023-01-09T21:10:40.362Z,7.60
2023-01-09T21:13:08.141Z,7.58
2023-01-09T21:15:38.481Z,7.61
2023-01-09T21:18:06.848Z,7.60
2023-01-09T21:20:34.700Z,7.60
2023-01-09T21:23:02.490Z,7.60
2023-01-09T21:25:30.293Z,7.58
2023-01-09T21:27:59.460Z,7.60
2023-01-09T21:30:27.473Z,7.58
2023-01-09T21:32:55.261Z,7.58
2023-01-09T21:35:23.185Z,7.57
2023-01-09T21:37:51.219Z,7.57
2023-01-09T21:40:19.542Z,7.58
2023-01-09T21:43:05.010Z,7.57
2023-01-09T21:45:51.961Z,7.56
2023-01-09T21:48:19.950Z,7.54
2023-01-09T21:50:48.020Z,7.54
2023-01-09T21:53:15.864Z,7.53
2023-01-09T21:55:43.699Z,7.52
2023-01-09T21:58:11.627Z,7.52
2023-01-09T22:00:41.178Z,7.53
2023-01-09T22:05:49.324Z,7.51
2023-01-09T22:08:17.287Z,7.52
2023-01-09T22:10:45.139Z,7.52
2023-01-09T22:13:17.458Z,7.53
2023-01-09T22:15:48.087Z,7.52
2023-01-09T22:18:15.868Z,7.52
2023-01-09T22:20:43.690Z,7.53
2023-01-09T22:23:14.065Z,7.52
2023-01-09T22:25:42.657Z,7.52
2023-01-09T22:28:11.066Z,7.53
2023-01-09T22:30:41.302Z,7.55
2023-01-09T22:33:11.608Z,7.55
2023-01-09T22:35:41.819Z,7.55
2023-01-09T22:38:10.524Z,7.54
2023-01-09T22:40:38.362Z,7.54
2023-01-09T22:43:06.208Z,7.55
2023-01-09T22:45:34.383Z,7.54
2023-01-09T22:48:02.167Z,7.54
2023-01-09T22:50:31.290Z,7.55
2023-01-09T22:52:59.030Z,7.53
2023-01-09T22:55:26.849Z,7.51
2023-01-09T22:57:54.599Z,7.51
2023-01-09T23:00:22.432Z,7.51
2023-01-09T23:02:50.430Z,7.50
2023-01-09T23:05:19.625Z,7.49
2023-01-09T23:07:48.771Z,7.51
2023-01-09T23:10:17.656Z,7.48
2023-01-09T23:12:48.437Z,7.47
2023-01-09T23:15:16.333Z,7.45
2023-01-09T23:17:44.080Z,7.45
2023-01-09T23:20:12.892Z,7.46
2023-01-09T23:22:40.651Z,7.43
2023-01-09T23:25:14.309Z,7.43
2023-01-09T23:27:42.867Z,7.40
2023-01-09T23:30:12.910Z,7.38
2023-01-09T23:32:40.730Z,7.36
2023-01-09T23:35:09.088Z,7.35
2023-01-09T23:37:36.886Z,7.33
2023-01-09T23:40:05.715Z,7.32
2023-01-09T23:42:52.515Z,7.31
2023-01-09T23:45:20.317Z,7.27
2023-01-09T23:47:48.217Z,7.26
2023-01-09T23:50:16.206Z,7.27
2023-01-09T23:52:44.109Z,7.26
2023-01-09T23:55:12.030Z,7.25
2023-01-09T23:57:41.199Z,7.25
